createdAt,value
2023-05-09T00:02:07.955Z,11.60
2023-05-09T00:04:35.360Z,11.57
2023-05-09T00:07:02.170Z,11.51
2023-05-09T00:09:28.822Z,11.43
2023-05-09T00:11:55.523Z,11.31
2023-05-09T00:14:22.215Z,11.20
2023-05-09T00:16:49.478Z,11.13
2023-05-09T00:19:16.160Z,11.16
2023-05-09T00:21:43.167Z,11.22
2023-05-09T00:24:09.831Z,11.28
2023-05-09T00:26:36.480Z,11.35
2023-05-09T00:29:03.172Z,11.41
2023-05-09T00:31:29.840Z,11.36
2023-05-09T00:33:56.645Z,11.28
2023-05-09T00:36:23.759Z,11.10
2023-05-09T00:38:51.279Z,10.88
2023-05-09T00:41:18.063Z,10.72
2023-05-09T00:43:45.022Z,10.53
2023-05-09T00:46:11.801Z,10.39
2023-05-09T00:48:38.497Z,10.32
2023-05-09T00:51:05.288Z,10.27
2023-05-09T00:53:32.473Z,10.26
2023-05-09T00:56:00.595Z,10.26
2023-05-09T00:58:27.402Z,10.28
2023-05-09T01:00:54.112Z,10.33
2023-05-09T01:03:20.889Z,10.35
2023-05-09T01:06:05.892Z,10.39
2023-05-09T01:08:41.939Z,10.46
2023-05-09T01:11:27.375Z,10.48
2023-05-09T01:14:12.380Z,10.48
2023-05-09T01:16:45.935Z,10.46
2023-05-09T01:19:15.289Z,10.36
2023-05-09T01:21:46.383Z,10.30
2023-05-09T01:24:16.039Z,10.29
2023-05-09T01:27:15.805Z,10.35
2023-05-09T01:29:46.111Z,10.38
2023-05-09T01:32:17.817Z,10.40
2023-05-09T01:34:45.990Z,10.41
2023-05-09T01:37:18.813Z,10.42
2023-05-09T01:39:49.920Z,10.37
2023-05-09T01:42:20.684Z,10.36
2023-05-09T01:44:49.083Z,10.28
2023-05-09T01:47:18.192Z,10.30
2023-05-09T01:49:47.795Z,10.37
2023-05-09T01:52:17.643Z,10.38
2023-05-09T01:54:46.040Z,10.40
2023-05-09T01:57:14.644Z,10.32
2023-05-09T01:59:44.309Z,10.30
2023-05-09T02:02:12.265Z,10.25
2023-05-09T02:04:42.245Z,10.22
2023-05-09T02:07:11.251Z,10.19
2023-05-09T02:09:41.324Z,10.18
2023-05-09T02:12:08.226Z,10.15
2023-05-09T02:14:34.944Z,10.11
2023-05-09T02:17:06.987Z,10.11
2023-05-09T02:19:35.081Z,10.05
2023-05-09T02:22:04.728Z,10.04
2023-05-09T02:24:33.758Z,10.03
2023-05-09T02:27:02.779Z,10.03
2023-05-09T02:29:40.628Z,10.06
2023-05-09T02:32:14.280Z,10.09
2023-05-09T02:34:42.268Z,10.04
2023-05-09T02:37:10.199Z,10.06
2023-05-09T02:39:37.448Z,10.04
2023-05-09T02:42:07.397Z,10.01
2023-05-09T02:44:34.674Z,10.01
2023-05-09T02:47:02.777Z,9.96
2023-05-09T02:49:32.398Z,10.00
2023-05-09T02:52:01.474Z,10.01
2023-05-09T02:54:28.410Z,10.01
2023-05-09T02:56:55.280Z,10.03
2023-05-09T02:59:22.379Z,10.06
2023-05-09T03:01:49.497Z,10.06
2023-05-09T03:04:16.694Z,10.05
2023-05-09T03:06:43.990Z,10.06
2023-05-09T03:09:10.721Z,10.06
2023-05-09T03:11:37.453Z,10.11
2023-05-09T03:14:04.763Z,10.10
2023-05-09T03:16:31.776Z,10.09
2023-05-09T03:18:59.394Z,10.10
2023-05-09T03:21:26.453Z,10.12
2023-05-09T03:23:53.192Z,10.14
2023-05-09T03:26:19.887Z,10.09
2023-05-09T03:28:46.862Z,10.04
2023-05-09T03:31:14.925Z,10.05
2023-05-09T03:33:41.616Z,10.11
2023-05-09T03:36:09.200Z,10.07
2023-05-09T03:38:36.755Z,10.06
2023-05-09T03:41:04.122Z,10.05
2023-05-09T03:43:30.833Z,10.04
2023-05-09T03:45:57.515Z,10.04
2023-05-09T03:48:26.214Z,10.01
2023-05-09T03:50:53.081Z,10.00
2023-05-09T03:53:21.240Z,9.95
2023-05-09T03:55:49.666Z,9.98
2023-05-09T03:58:16.545Z,9.98
2023-05-09T04:00:44.427Z,10.03
2023-05-09T04:03:19.414Z,10.10
2023-05-09T04:05:48.307Z,10.06
2023-05-09T04:08:27.708Z,10.07
2023-05-09T04:10:54.372Z,10.03
2023-05-09T04:13:22.399Z,9.94
2023-05-09T04:15:49.160Z,9.90
2023-05-09T04:18:15.890Z,9.84
2023-05-09T04:20:42.549Z,9.81
2023-05-09T04:23:10.376Z,9.76
2023-05-09T04:25:38.025Z,9.75
2023-05-09T04:28:04.855Z,9.69
2023-05-09T04:30:31.930Z,9.72
2023-05-09T04:32:59.277Z,9.70
2023-05-09T04:35:28.026Z,9.74
2023-05-09T04:37:54.869Z,9.65
2023-05-09T04:40:22.971Z,9.63
2023-05-09T04:42:57.362Z,9.62
2023-05-09T04:45:27.778Z,9.59
2023-05-09T04:47:55.395Z,9.63
2023-05-09T04:50:22.281Z,9.64
2023-05-09T04:52:48.944Z,9.63
2023-05-09T04:55:15.955Z,9.63
2023-05-09T04:57:46.306Z,9.57
2023-05-09T05:00:13.582Z,9.61
2023-05-09T05:02:40.850Z,9.55
2023-05-09T05:05:12.061Z,9.52
2023-05-09T05:07:48.504Z,9.60
2023-05-09T05:10:20.188Z,9.66
2023-05-09T05:12:51.429Z,9.72
2023-05-09T05:15:19.631Z,9.83
2023-05-09T05:17:47.522Z,9.88
2023-05-09T05:20:17.334Z,10.00
2023-05-09T05:22:45.980Z,10.05
2023-05-09T05:25:13.438Z,10.09
2023-05-09T05:27:41.370Z,10.18
2023-05-09T05:30:11.100Z,10.21
2023-05-09T05:32:37.915Z,10.29
2023-05-09T05:35:05.033Z,10.23
2023-05-09T05:37:35.466Z,10.09
2023-05-09T05:40:02.668Z,10.01
2023-05-09T05:42:30.840Z,10.07
2023-05-09T05:44:57.646Z,10.17
2023-05-09T05:47:24.801Z,10.18
2023-05-09T05:49:51.954Z,10.24
2023-05-09T05:52:18.615Z,10.38
2023-05-09T05:54:45.519Z,10.60
2023-05-09T05:57:12.235Z,11.02
2023-05-09T05:59:38.970Z,11.42
2023-05-09T06:02:06.562Z,11.53
2023-05-09T06:04:34.213Z,11.43
2023-05-09T06:07:01.183Z,11.46
2023-05-09T06:09:27.831Z,11.21
2023-05-09T06:11:54.503Z,11.02
2023-05-09T06:14:21.244Z,10.94
2023-05-09T06:16:48.577Z,11.38
2023-05-09T06:19:15.448Z,11.61
2023-05-09T06:21:42.106Z,11.74
2023-05-09T06:24:16.572Z,11.69
2023-05-09T06:26:51.022Z,11.86
2023-05-09T06:29:17.756Z,12.30
2023-05-09T06:31:44.442Z,12.36
2023-05-09T06:34:11.247Z,11.96
2023-05-09T06:36:37.911Z,12.01
2023-05-09T06:39:04.578Z,11.97
2023-05-09T06:41:31.276Z,11.64
2023-05-09T06:43:57.976Z,11.50
2023-05-09T06:46:24.632Z,11.52
2023-05-09T06:48:51.268Z,11.59
2023-05-09T06:51:18.016Z,11.89
2023-05-09T06:53:44.713Z,12.10
2023-05-09T06:56:12.030Z,12.43
2023-05-09T06:58:38.765Z,12.70
2023-05-09T07:01:05.639Z,13.05
2023-05-09T07:03:32.273Z,13.24
2023-05-09T07:05:59.928Z,13.49
2023-05-09T07:08:26.997Z,13.83
2023-05-09T07:10:53.803Z,13.86
2023-05-09T07:13:20.670Z,13.92
2023-05-09T07:15:47.413Z,13.24
2023-05-09T07:18:14.042Z,12.85
2023-05-09T07:20:41.140Z,12.65
2023-05-09T07:23:07.840Z,12.67
2023-05-09T07:25:34.555Z,13.01
2023-05-09T07:28:01.219Z,13.35
2023-05-09T07:30:27.955Z,13.36
2023-05-09T07:32:54.666Z,13.54
2023-05-09T07:35:21.567Z,13.80
2023-05-09T07:37:48.376Z,13.73
2023-05-09T07:40:15.708Z,13.97
2023-05-09T07:42:49.445Z,14.02
2023-05-09T07:45:16.847Z,14.00
2023-05-09T07:47:43.999Z,14.29
2023-05-09T07:50:10.965Z,14.56
2023-05-09T07:52:37.611Z,14.69
2023-05-09T07:55:04.675Z,14.61
2023-05-09T07:57:31.327Z,14.64
2023-05-09T07:59:57.977Z,14.64
2023-05-09T08:02:24.910Z,14.71
2023-05-09T08:04:51.850Z,15.21
2023-05-09T08:07:18.521Z,15.23
2023-05-09T08:09:45.218Z,15.14
2023-05-09T08:12:12.307Z,15.01
2023-05-09T08:14:39.249Z,15.37
2023-05-09T08:17:05.926Z,15.37
2023-05-09T08:19:32.716Z,15.32
2023-05-09T08:21:59.511Z,15.34
2023-05-09T08:24:26.317Z,15.60
2023-05-09T08:26:52.948Z,15.60
2023-05-09T08:29:19.568Z,15.47
2023-05-09T08:31:46.328Z,15.41
2023-05-09T08:34:13.056Z,15.38
2023-05-09T08:36:40.994Z,15.57
2023-05-09T08:39:08.841Z,15.78
2023-05-09T08:41:36.238Z,15.89
2023-05-09T08:44:03.414Z,16.19
2023-05-09T08:46:37.145Z,16.50
2023-05-09T08:49:06.127Z,16.63
2023-05-09T08:51:33.132Z,16.44
2023-05-09T08:54:00.336Z,16.73
2023-05-09T08:56:27.342Z,16.84
2023-05-09T08:58:55.561Z,17.12
2023-05-09T09:01:23.495Z,17.06
2023-05-09T09:03:51.098Z,17.26
2023-05-09T09:06:18.902Z,16.65
2023-05-09T09:08:46.664Z,16.70
2023-05-09T09:11:14.996Z,17.04
2023-05-09T09:13:43.952Z,16.85
2023-05-09T09:16:20.770Z,17.06
2023-05-09T09:18:48.514Z,17.03
2023-05-09T09:21:17.189Z,17.12
2023-05-09T09:23:47.448Z,17.24
2023-05-09T09:26:14.277Z,16.98
2023-05-09T09:28:41.780Z,17.10
2023-05-09T09:31:31.572Z,17.24
2023-05-09T09:34:02.421Z,17.26
2023-05-09T09:36:33.056Z,16.98
2023-05-09T09:39:00.937Z,17.18
2023-05-09T09:41:38.639Z,17.21
2023-05-09T09:44:09.349Z,17.20
2023-05-09T09:46:46.704Z,17.01
2023-05-09T09:49:14.692Z,16.94
2023-05-09T09:51:41.813Z,17.02
2023-05-09T09:54:10.578Z,17.22
2023-05-09T09:56:44.143Z,17.57
2023-05-09T09:59:19.880Z,17.66
2023-05-09T10:02:01.874Z,17.65
2023-05-09T10:04:41.889Z,18.02
2023-05-09T10:07:13.747Z,18.10
2023-05-09T10:09:42.416Z,17.87
2023-05-09T10:12:09.162Z,17.83
2023-05-09T10:14:38.324Z,18.14
2023-05-09T10:17:05.844Z,18.06
2023-05-09T10:19:33.472Z,18.13
2023-05-09T10:22:06.119Z,18.59
2023-05-09T10:24:54.968Z,18.18
2023-05-09T10:27:26.598Z,17.99
2023-05-09T10:30:01.355Z,18.37
2023-05-09T10:32:39.285Z,18.46
2023-05-09T10:35:08.412Z,18.40
2023-05-09T10:37:36.454Z,18.62
2023-05-09T10:40:05.292Z,19.11
2023-05-09T10:42:32.700Z,19.33
2023-05-09T10:44:59.455Z,19.07
2023-05-09T10:47:28.054Z,19.33
2023-05-09T10:49:55.435Z,18.93
2023-05-09T10:52:22.884Z,18.58
2023-05-09T10:55:03.566Z,18.52
2023-05-09T10:57:31.758Z,18.71
2023-05-09T11:00:00.290Z,18.74
2023-05-09T11:02:30.930Z,18.67
2023-05-09T11:05:18.045Z,18.23
2023-05-09T11:07:45.098Z,17.77
2023-05-09T11:10:17.711Z,17.78
2023-05-09T11:12:58.750Z,17.78
2023-05-09T11:15:27.518Z,17.75
2023-05-09T11:18:08.257Z,17.76
2023-05-09T11:20:36.604Z,17.80
2023-05-09T11:23:06.891Z,18.53
2023-05-09T11:25:33.771Z,18.57
2023-05-09T11:28:01.725Z,18.25
2023-05-09T11:30:42.652Z,18.64
2023-05-09T11:33:30.923Z,18.83
2023-05-09T11:36:30.219Z,18.26
2023-05-09T11:39:10.686Z,18.56
2023-05-09T11:41:46.272Z,18.65
2023-05-09T11:44:21.000Z,18.94
2023-05-09T11:46:49.359Z,18.72
2023-05-09T11:49:17.038Z,18.48
2023-05-09T11:51:43.797Z,18.58
2023-05-09T11:54:12.301Z,18.36
2023-05-09T11:56:41.642Z,18.42
2023-05-09T11:59:09.024Z,18.49
2023-05-09T12:01:36.806Z,18.55
2023-05-09T12:04:06.165Z,18.69
2023-05-09T12:06:32.980Z,19.14
2023-05-09T12:08:59.646Z,19.12
2023-05-09T12:11:28.607Z,19.05
2023-05-09T12:13:56.535Z,18.90
2023-05-09T12:16:23.272Z,19.03
2023-05-09T12:18:52.551Z,18.78
2023-05-09T12:21:20.511Z,19.01
2023-05-09T12:23:50.624Z,19.44
2023-05-09T12:26:18.388Z,19.48
2023-05-09T12:28:45.729Z,19.22
2023-05-09T12:31:13.065Z,19.26
2023-05-09T12:33:40.191Z,19.39
2023-05-09T12:36:12.168Z,19.74
2023-05-09T12:38:39.554Z,19.66
2023-05-09T12:41:15.467Z,19.00
2023-05-09T12:43:51.332Z,19.19
2023-05-09T12:46:20.136Z,19.02
2023-05-09T12:48:50.221Z,18.67
2023-05-09T12:51:21.163Z,18.65
2023-05-09T12:53:48.455Z,18.89
2023-05-09T12:56:20.894Z,19.10
2023-05-09T12:58:52.629Z,18.60
2023-05-09T13:01:20.886Z,18.82
2023-05-09T13:04:01.937Z,18.88
2023-05-09T13:06:28.578Z,18.64
2023-05-09T13:09:05.885Z,18.90
2023-05-09T13:11:32.705Z,19.20
2023-05-09T13:13:59.782Z,19.40
2023-05-09T13:16:27.076Z,19.39
2023-05-09T13:18:53.779Z,19.29
2023-05-09T13:21:21.088Z,19.01
2023-05-09T13:23:50.025Z,19.27
2023-05-09T13:26:16.768Z,19.32
2023-05-09T13:28:43.441Z,19.54
2023-05-09T13:31:10.192Z,19.64
2023-05-09T13:33:36.876Z,19.20
2023-05-09T13:36:03.880Z,18.97
2023-05-09T13:38:32.224Z,19.26
2023-05-09T13:40:59.522Z,19.55
2023-05-09T13:43:27.421Z,19.69
2023-05-09T13:45:54.130Z,19.49
2023-05-09T13:48:20.818Z,19.54
2023-05-09T13:50:47.516Z,19.62
2023-05-09T13:53:14.140Z,19.95
2023-05-09T13:55:40.831Z,19.95
2023-05-09T13:58:07.672Z,19.84
2023-05-09T14:00:34.499Z,19.74
2023-05-09T14:03:03.076Z,19.65
2023-05-09T14:05:33.147Z,19.75
2023-05-09T14:08:01.625Z,19.53
2023-05-09T14:10:28.381Z,19.60
2023-05-09T14:12:55.105Z,19.82
2023-05-09T14:15:21.778Z,19.95
2023-05-09T14:17:48.488Z,20.15
2023-05-09T14:20:18.182Z,20.17
2023-05-09T14:22:45.029Z,19.97
2023-05-09T14:25:11.680Z,19.94
2023-05-09T14:27:38.414Z,20.19
2023-05-09T14:30:05.389Z,20.20
2023-05-09T14:32:32.877Z,20.10
2023-05-09T14:34:59.658Z,20.06
2023-05-09T14:37:26.362Z,19.80
2023-05-09T14:39:53.010Z,19.55
2023-05-09T14:42:19.836Z,19.45
2023-05-09T14:44:47.394Z,19.66
2023-05-09T14:47:14.099Z,19.57
2023-05-09T14:49:41.443Z,19.55
2023-05-09T14:52:08.141Z,19.61
2023-05-09T14:54:34.998Z,19.64
2023-05-09T14:57:04.512Z,19.49
2023-05-09T14:59:31.357Z,19.60
2023-05-09T15:01:57.985Z,19.40
2023-05-09T15:04:28.335Z,19.40
2023-05-09T15:06:55.086Z,19.23
2023-05-09T15:09:22.496Z,19.02
2023-05-09T15:11:49.446Z,18.98
2023-05-09T15:14:16.937Z,18.98
2023-05-09T15:16:44.006Z,19.08
2023-05-09T15:19:10.868Z,19.20
2023-05-09T15:21:37.530Z,19.12
2023-05-09T15:24:04.966Z,19.10
2023-05-09T15:26:32.250Z,19.15
2023-05-09T15:28:58.998Z,19.24
2023-05-09T15:31:25.949Z,19.14
2023-05-09T15:33:52.724Z,19.22
2023-05-09T15:36:19.375Z,19.26
2023-05-09T15:38:49.544Z,19.08
2023-05-09T15:41:17.079Z,19.00
2023-05-09T15:43:43.827Z,18.96
2023-05-09T15:46:10.889Z,18.81
2023-05-09T15:48:37.691Z,18.86
2023-05-09T15:51:04.638Z,18.87
2023-05-09T15:53:31.561Z,18.89
2023-05-09T15:55:58.322Z,18.94
2023-05-09T15:58:25.483Z,18.97
2023-05-09T16:00:52.179Z,19.09
2023-05-09T16:03:19.434Z,18.93
2023-05-09T16:05:46.315Z,18.90
2023-05-09T16:08:13.160Z,19.00
2023-05-09T16:10:40.511Z,18.88
2023-05-09T16:13:07.888Z,18.75
2023-05-09T16:15:35.257Z,18.79
2023-05-09T16:18:02.198Z,18.81
2023-05-09T16:20:29.003Z,18.66
2023-05-09T16:22:55.698Z,18.74
2023-05-09T16:25:22.769Z,18.80
2023-05-09T16:27:49.527Z,18.84
2023-05-09T16:30:16.837Z,18.76
2023-05-09T16:32:43.834Z,18.74
2023-05-09T16:35:10.812Z,18.60
2023-05-09T16:37:37.528Z,18.59
2023-05-09T16:40:04.867Z,18.47
2023-05-09T16:42:31.624Z,18.38
2023-05-09T16:44:58.340Z,18.35
2023-05-09T16:47:25.135Z,18.26
2023-05-09T16:49:51.816Z,18.29
2023-05-09T16:52:18.533Z,18.26
2023-05-09T16:54:45.356Z,18.21
2023-05-09T16:57:12.110Z,18.15
2023-05-09T16:59:39.683Z,18.11
2023-05-09T17:02:07.207Z,18.07
2023-05-09T17:04:35.297Z,18.00
2023-05-09T17:07:04.223Z,17.96
2023-05-09T17:09:30.879Z,17.95
2023-05-09T17:11:57.564Z,18.02
2023-05-09T17:14:24.347Z,18.08
2023-05-09T17:16:51.011Z,18.09
2023-05-09T17:19:18.929Z,18.02
2023-05-09T17:21:45.549Z,17.93
2023-05-09T17:24:12.232Z,17.84
2023-05-09T17:26:39.147Z,17.80
2023-05-09T17:29:06.029Z,17.76
2023-05-09T17:31:32.765Z,17.74
2023-05-09T17:33:59.439Z,17.71
2023-05-09T17:36:26.340Z,17.69
2023-05-09T17:38:52.949Z,17.69
2023-05-09T17:41:19.665Z,17.80
2023-05-09T17:43:46.330Z,17.81
2023-05-09T17:46:14.865Z,17.76
2023-05-09T17:48:42.029Z,17.77
2023-05-09T17:51:08.790Z,17.67
2023-05-09T17:53:35.521Z,17.72
2023-05-09T17:56:02.250Z,17.63
2023-05-09T17:58:29.874Z,17.55
2023-05-09T18:00:58.662Z,17.55
2023-05-09T18:03:27.599Z,17.50
2023-05-09T18:05:54.548Z,17.55
2023-05-09T18:08:21.187Z,17.59
2023-05-09T18:10:47.943Z,17.52
2023-05-09T18:13:14.704Z,17.47
2023-05-09T18:15:41.407Z,17.33
2023-05-09T18:18:08.332Z,17.30
2023-05-09T18:20:35.122Z,17.25
2023-05-09T18:23:01.927Z,17.21
2023-05-09T18:25:29.427Z,17.11
2023-05-09T18:27:56.646Z,17.13
2023-05-09T18:30:23.309Z,17.13
2023-05-09T18:32:49.996Z,17.14
2023-05-09T18:35:16.746Z,17.00
2023-05-09T18:37:43.442Z,16.94
2023-05-09T18:40:14.992Z,16.52
2023-05-09T18:42:42.364Z,16.08
2023-05-09T18:45:10.078Z,15.64
2023-05-09T18:47:37.786Z,15.37
2023-05-09T18:50:07.048Z,15.28
2023-05-09T18:52:34.471Z,15.17
2023-05-09T18:55:01.211Z,15.04
2023-05-09T18:57:28.341Z,14.95
2023-05-09T18:59:56.039Z,14.81
2023-05-09T19:02:23.590Z,14.74
2023-05-09T19:04:51.541Z,14.67
2023-05-09T19:07:18.315Z,14.67
2023-05-09T19:09:45.095Z,14.67
2023-05-09T19:12:11.725Z,14.72
2023-05-09T19:14:38.740Z,14.81
2023-05-09T19:17:05.802Z,14.79
2023-05-09T19:19:32.783Z,14.83
2023-05-09T19:22:00.990Z,14.78
2023-05-09T19:24:27.905Z,14.81
2023-05-09T19:26:54.568Z,14.84
2023-05-09T19:29:21.219Z,14.85
2023-05-09T19:31:49.761Z,14.80
2023-05-09T19:34:16.895Z,14.74
2023-05-09T19:36:43.597Z,14.69
2023-05-09T19:39:11.200Z,14.62
2023-05-09T19:41:37.944Z,14.61
2023-05-09T19:44:06.907Z,14.51
2023-05-09T19:46:33.829Z,14.49
2023-05-09T19:49:01.181Z,14.44
2023-05-09T19:51:27.947Z,14.46
2023-05-09T19:53:54.610Z,14.49
2023-05-09T19:56:23.270Z,14.38
2023-05-09T19:58:50.346Z,14.36
2023-05-09T20:01:17.974Z,14.24
2023-05-09T20:03:46.697Z,14.30
2023-05-09T20:06:13.597Z,14.10
2023-05-09T20:08:40.336Z,14.21
2023-05-09T20:11:07.841Z,14.22
2023-05-09T20:13:34.523Z,14.21
2023-05-09T20:16:02.798Z,14.21
2023-05-09T20:18:29.542Z,14.20
2023-05-09T20:20:56.179Z,14.13
2023-05-09T20:23:22.877Z,14.01
2023-05-09T20:25:49.532Z,13.97
2023-05-09T20:28:20.194Z,13.84
2023-05-09T20:30:47.354Z,13.87
2023-05-09T20:33:14.062Z,13.74
2023-05-09T20:35:43.233Z,13.65
2023-05-09T20:38:11.267Z,13.57
2023-05-09T20:40:38.229Z,13.47
2023-05-09T20:43:04.949Z,13.45
2023-05-09T20:45:31.637Z,13.52
2023-05-09T20:47:59.103Z,13.47
2023-05-09T20:50:25.847Z,13.51
2023-05-09T20:52:52.565Z,13.61
2023-05-09T20:55:19.426Z,13.65
2023-05-09T20:57:46.081Z,13.68
2023-05-09T21:00:13.337Z,13.53
2023-05-09T21:02:40.262Z,13.56
2023-05-09T21:05:07.435Z,13.54
2023-05-09T21:07:34.106Z,13.54
2023-05-09T21:10:00.857Z,13.50
2023-05-09T21:12:27.871Z,13.64
2023-05-09T21:14:54.532Z,13.62
2023-05-09T21:17:21.223Z,13.45
2023-05-09T21:19:51.582Z,13.50
2023-05-09T21:22:18.393Z,13.53
2023-05-09T21:24:45.072Z,13.55
2023-05-09T21:27:11.854Z,13.55
2023-05-09T21:29:38.576Z,13.57
2023-05-09T21:32:05.622Z,13.45
2023-05-09T21:34:32.285Z,13.36
2023-05-09T21:36:58.919Z,13.37
2023-05-09T21:39:25.767Z,13.40
2023-05-09T21:41:52.493Z,13.35
2023-05-09T21:44:19.114Z,13.42
2023-05-09T21:46:46.449Z,13.38
2023-05-09T21:49:16.652Z,13.40
2023-05-09T21:51:43.577Z,13.42
2023-05-09T21:54:11.020Z,13.44
2023-05-09T21:56:38.020Z,13.50
2023-05-09T21:59:04.809Z,13.50
2023-05-09T22:01:31.601Z,13.44
2023-05-09T22:03:58.803Z,13.43
2023-05-09T22:06:25.584Z,13.37
2023-05-09T22:08:52.305Z,13.37
2023-05-09T22:11:19.019Z,13.31
2023-05-09T22:13:45.689Z,13.34
2023-05-09T22:16:13.347Z,13.31
2023-05-09T22:18:40.113Z,13.33
2023-05-09T22:21:07.072Z,13.33
2023-05-09T22:23:34.058Z,13.31
2023-05-09T22:26:01.058Z,13.32
2023-05-09T22:28:28.580Z,13.28
2023-05-09T22:30:55.260Z,13.26
2023-05-09T22:33:21.982Z,13.22
2023-05-09T22:35:48.722Z,13.18
2023-05-09T22:38:15.403Z,13.10
2023-05-09T22:40:42.256Z,13.12
2023-05-09T22:43:10.569Z,13.05
2023-05-09T22:45:37.252Z,13.01
2023-05-09T22:48:04.172Z,12.92
2023-05-09T22:50:31.101Z,12.91
2023-05-09T22:52:57.844Z,12.91
2023-05-09T22:55:24.505Z,12.82
2023-05-09T22:57:51.181Z,12.93
2023-05-09T23:00:18.189Z,12.90
2023-05-09T23:02:45.617Z,12.92
2023-05-09T23:05:12.526Z,12.90
2023-05-09T23:07:39.344Z,12.80
2023-05-09T23:10:07.213Z,12.90
2023-05-09T23:12:35.219Z,12.89
2023-05-09T23:15:01.906Z,12.87
2023-05-09T23:17:28.897Z,12.88
2023-05-09T23:19:55.750Z,12.92
2023-05-09T23:22:22.414Z,12.87
2023-05-09T23:24:49.082Z,12.94
2023-05-09T23:27:15.882Z,12.94
2023-05-09T23:29:43.505Z,12.97
2023-05-09T23:32:10.126Z,12.98
2023-05-09T23:34:36.905Z,13.08
2023-05-09T23:37:04.280Z,12.97
2023-05-09T23:39:31.522Z,12.99
2023-05-09T23:41:58.631Z,13.08
2023-05-09T23:44:25.751Z,13.08
2023-05-09T23:46:52.887Z,13.10
2023-05-09T23:49:19.685Z,13.10
2023-05-09T23:51:46.345Z,13.09
2023-05-09T23:54:13.001Z,13.00
2023-05-09T23:56:40.063Z,12.97
2023-05-09T23:59:06.723Z,12.86
